Time;durP1;ratioP1;P1;durP2;ratioP2;P2;SDS_P1;SDS_P2;PMS_P1;PMS_P2;Temp;Humidity;BMP_temperature;BMP_pressure;BME280_temperature;BME280_humidity;BME280_pressure;Samples;Min_cycle;Max_cycle;Signal;HPM_P1;HPM_P2
2023/10/06 00:01:40;;;;;;;3.70;2.70;;;12.60;99.90;;;;;;4966454;28;20575;-72
2023/10/06 00:04:07;;;;;;;2.90;2.40;;;12.60;99.90;;;;;;4968518;28;20465;-73
2023/10/06 00:06:42;;;;;;;2.80;2.50;;;12.60;99.90;;;;;;4969069;28;20474;-71
2023/10/06 00:09:25;;;;;;;5.80;2.53;;;12.60;99.90;;;;;;4971596;28;20472;-72
2023/10/06 00:11:52;;;;;;;4.43;4.03;;;12.60;99.90;;;;;;4967681;28;20472;-70
2023/10/06 00:17:02;;;;;;;3.43;2.60;;;12.50;99.90;;;;;;4967767;28;21146;-71
2023/10/06 00:19:31;;;;;;;3.13;2.10;;;12.50;99.90;;;;;;4971449;28;20476;-72
2023/10/06 00:22:09;;;;;;;6.33;2.03;;;12.40;99.90;;;;;;4953139;28;20568;-72
2023/10/06 00:24:37;;;;;;;4.37;2.80;;;12.40;99.90;;;;;;4966606;28;20478;-69
2023/10/06 00:27:11;;;;;;;4.10;2.60;;;12.40;99.90;;;;;;4959387;28;20533;-72
2023/10/06 00:29:38;;;;;;;4.77;2.50;;;12.40;99.90;;;;;;4962560;28;20473;-71
2023/10/06 00:32:22;;;;;;;3.27;2.30;;;12.40;99.90;;;;;;4959942;28;20465;-73
2023/10/06 00:35:08;;;;;;;4.63;2.50;;;12.50;99.90;;;;;;4958063;28;20589;-71
2023/10/06 00:37:36;;;;;;;6.00;2.90;;;12.40;99.90;;;;;;4946548;28;20472;-72
2023/10/06 00:40:09;;;;;;;4.43;2.60;;;12.30;99.90;;;;;;4959639;28;20488;-70
2023/10/06 00:42:35;;;;;;;2.37;2.17;;;12.20;99.90;;;;;;4962667;28;20488;-72
2023/10/06 00:45:00;;;;;;;6.83;2.67;;;12.30;99.90;;;;;;4968209;28;20552;-71
2023/10/06 00:47:30;;;;;;;4.47;3.13;;;12.30;99.90;;;;;;4962346;28;20241;-71
2023/10/06 00:49:56;;;;;;;6.27;3.00;;;12.30;99.90;;;;;;4943012;28;20237;-70
2023/10/06 00:52:21;;;;;;;4.20;3.20;;;12.40;99.90;;;;;;4961143;28;20482;-71
2023/10/06 00:54:47;;;;;;;4.30;2.70;;;12.40;99.90;;;;;;4958911;28;20659;-71
2023/10/06 00:57:18;;;;;;;2.83;2.57;;;12.30;99.90;;;;;;4959555;28;20241;-71
2023/10/06 00:59:44;;;;;;;4.43;2.40;;;12.30;99.90;;;;;;4941926;28;20237;-72
2023/10/06 01:02:11;;;;;;;5.23;3.37;;;12.20;99.90;;;;;;4943331;28;20571;-72
2023/10/06 01:04:46;;;;;;;4.47;2.90;;;12.20;99.90;;;;;;4961770;28;20230;-71
2023/10/06 01:07:18;;;;;;;4.67;3.03;;;12.20;99.90;;;;;;4962832;28;20542;-71
2023/10/06 01:09:57;;;;;;;5.83;3.50;;;12.20;99.90;;;;;;4967323;28;20546;-72
2023/10/06 01:12:29;;;;;;;3.80;2.50;;;12.20;99.90;;;;;;4959628;28;20464;-72
2023/10/06 01:15:09;;;;;;;3.33;2.70;;;12.20;99.90;;;;;;4942715;28;20542;-72
2023/10/06 01:17:35;;;;;;;4.50;2.83;;;12.20;99.90;;;;;;4961663;28;20595;-71
2023/10/06 01:20:00;;;;;;;3.70;2.60;;;12.20;99.90;;;;;;4956634;28;20457;-72
2023/10/06 01:22:29;;;;;;;8.47;3.07;;;12.20;99.90;;;;;;4962542;28;20245;-72
2023/10/06 01:24:55;;;;;;;4.63;2.70;;;12.10;99.90;;;;;;4964771;28;20282;-70
2023/10/06 01:27:27;;;;;;;5.20;2.63;;;12.10;99.90;;;;;;4954946;28;20968;-72
2023/10/06 01:30:17;;;;;;;5.57;3.37;;;12.10;99.90;;;;;;4956635;28;20468;-72
2023/10/06 01:32:41;;;;;;;9.03;3.63;;;12.10;99.90;;;;;;4961398;28;20477;-70
2023/10/06 01:35:12;;;;;;;2.90;2.60;;;11.80;99.90;;;;;;4955879;28;20480;-72
2023/10/06 01:37:43;;;;;;;4.50;2.83;;;11.90;99.90;;;;;;4948882;28;20487;-71
2023/10/06 01:40:35;;;;;;;11.33;3.30;;;11.90;99.90;;;;;;4955417;28;20928;-72
2023/10/06 01:43:03;;;;;;;4.07;3.43;;;11.90;99.90;;;;;;4938526;28;20480;-70
2023/10/06 01:45:35;;;;;;;3.37;2.47;;;11.90;99.90;;;;;;4959648;28;20484;-70
2023/10/06 01:48:22;;;;;;;5.23;2.80;;;11.90;99.90;;;;;;4957044;28;20499;-72
2023/10/06 01:50:49;;;;;;;3.30;2.80;;;11.80;99.90;;;;;;4958118;28;20469;-72
2023/10/06 01:53:19;;;;;;;3.37;2.80;;;11.80;99.90;;;;;;4942846;28;20483;-72
2023/10/06 01:55:49;;;;;;;2.73;2.53;;;11.80;99.90;;;;;;4956744;28;20473;-71
2023/10/06 01:58:15;;;;;;;5.73;2.83;;;11.80;99.90;;;;;;4960514;28;20985;-71
2023/10/06 02:00:41;;;;;;;4.40;2.57;;;11.80;99.90;;;;;;4961855;28;20475;-72
2023/10/06 02:03:10;;;;;;;3.90;2.90;;;11.80;99.90;;;;;;4958322;28;20485;-71
2023/10/06 02:05:39;;;;;;;4.33;2.50;;;11.80;99.90;;;;;;4959427;28;20233;-70
2023/10/06 02:08:20;;;;;;;4.13;2.93;;;11.80;99.90;;;;;;4954864;28;20464;-70
2023/10/06 02:10:47;;;;;;;2.77;2.33;;;11.80;99.90;;;;;;4958656;28;20620;-72
2023/10/06 02:13:19;;;;;;;4.27;2.80;;;11.80;99.90;;;;;;4961556;28;20468;-71
2023/10/06 02:15:45;;;;;;;3.10;2.80;;;11.70;99.90;;;;;;4957098;28;21224;-72
2023/10/06 02:18:12;;;;;;;3.40;3.00;;;11.70;99.90;;;;;;4960302;28;20591;-71
2023/10/06 02:20:41;;;;;;;3.47;2.53;;;11.70;99.90;;;;;;4962299;28;20272;-71
2023/10/06 02:23:07;;;;;;;3.60;2.90;;;11.70;99.90;;;;;;4956783;28;20851;-72
2023/10/06 02:25:33;;;;;;;4.27;2.93;;;11.60;99.90;;;;;;4959905;28;20468;-71
2023/10/06 02:28:04;;;;;;;7.40;2.90;;;11.60;99.90;;;;;;4955041;28;20581;-71
2023/10/06 02:30:41;;;;;;;3.10;2.30;;;11.60;99.90;;;;;;4960837;28;20222;-72
2023/10/06 02:33:07;;;;;;;3.57;2.63;;;11.60;99.90;;;;;;4958229;28;21124;-72
2023/10/06 02:35:42;;;;;;;3.23;2.47;;;11.60;99.90;;;;;;4960233;28;20552;-72
2023/10/06 02:38:08;;;;;;;3.03;2.43;;;11.60;99.90;;;;;;4960806;28;20222;-71
2023/10/06 02:40:43;;;;;;;4.53;3.30;;;11.60;99.90;;;;;;4963118;28;20539;-72
2023/10/06 02:43:13;;;;;;;3.30;2.50;;;11.50;99.90;;;;;;4948160;28;20280;-72
2023/10/06 02:45:43;;;;;;;6.40;2.70;;;11.50;99.90;;;;;;4960632;28;20501;-70
2023/10/06 02:48:17;;;;;;;2.57;2.30;;;11.50;99.90;;;;;;4970984;28;20523;-70
2023/10/06 02:50:44;;;;;;;5.23;2.83;;;11.50;99.90;;;;;;4959850;28;20499;-71
2023/10/06 02:53:13;;;;;;;3.20;2.60;;;11.40;99.90;;;;;;4959298;28;20484;-72
2023/10/06 02:55:44;;;;;;;4.33;2.30;;;11.40;99.90;;;;;;4958079;28;20469;-70
2023/10/06 02:58:16;;;;;;;3.33;3.03;;;11.40;99.90;;;;;;4960250;28;20610;-71
2023/10/06 03:00:50;;;;;;;5.30;2.87;;;11.40;99.90;;;;;;4961650;28;20556;-71
2023/10/06 03:03:18;;;;;;;6.93;2.73;;;11.40;99.90;;;;;;4959411;28;20476;-71
2023/10/06 03:05:49;;;;;;;4.50;2.67;;;11.30;99.90;;;;;;4954257;28;20473;-72
2023/10/06 03:08:20;;;;;;;3.40;2.47;;;11.20;99.90;;;;;;4942048;28;20465;-69
2023/10/06 03:10:48;;;;;;;3.93;2.80;;;11.30;99.90;;;;;;4939344;28;20475;-71
2023/10/06 03:13:36;;;;;;;3.93;2.63;;;11.30;99.90;;;;;;4958594;28;20464;-72
2023/10/06 03:16:10;;;;;;;4.47;2.30;;;11.30;99.90;;;;;;4943079;28;20806;-70
2023/10/06 03:18:36;;;;;;;4.03;2.60;;;11.30;99.90;;;;;;4963725;28;20523;-71
2023/10/06 03:21:22;;;;;;;4.40;2.27;;;11.30;99.90;;;;;;4958812;28;20494;-71
2023/10/06 03:23:57;;;;;;;3.67;2.70;;;11.30;99.90;;;;;;4960652;28;20229;-71
2023/10/06 03:28:53;;;;;;;3.00;2.70;;;11.20;99.90;;;;;;4957859;28;20474;-72
2023/10/06 03:33:49;;;;;;;5.13;3.30;;;11.30;99.90;;;;;;4961035;28;20477;-70
2023/10/06 03:36:26;;;;;;;3.00;2.50;;;11.20;99.90;;;;;;4954990;28;20531;-71
2023/10/06 03:39:06;;;;;;;3.80;2.57;;;11.20;99.90;;;;;;4941909;28;20467;-71
2023/10/06 03:41:36;;;;;;;6.07;2.80;;;11.20;99.90;;;;;;4960829;28;20480;-70
2023/10/06 03:44:06;;;;;;;5.60;2.67;;;11.20;99.90;;;;;;4967407;28;20469;-72
2023/10/06 03:46:37;;;;;;;3.90;3.00;;;11.10;99.90;;;;;;4962259;28;20560;-72
2023/10/06 03:49:07;;;;;;;4.77;3.13;;;11.10;99.90;;;;;;4956281;28;20531;-72
2023/10/06 03:51:40;;;;;;;7.57;2.80;;;11.10;99.90;;;;;;4962148;28;20481;-72
2023/10/06 03:54:07;;;;;;;5.10;2.70;;;11.10;99.90;;;;;;4973964;28;21269;-72
2023/10/06 03:56:33;;;;;;;4.97;3.43;;;11.10;99.90;;;;;;4960186;28;20485;-70
2023/10/06 03:59:12;;;;;;;7.40;3.00;;;11.00;99.90;;;;;;4967640;28;20479;-72
2023/10/06 04:01:38;;;;;;;3.23;2.90;;;11.00;99.90;;;;;;4963038;28;20371;-72
2023/10/06 04:04:05;;;;;;;5.03;2.67;;;10.90;99.90;;;;;;4951473;28;20495;-72
2023/10/06 04:06:35;;;;;;;2.83;2.63;;;10.90;99.90;;;;;;4962096;28;20496;-72
2023/10/06 04:09:01;;;;;;;4.30;3.37;;;10.90;99.90;;;;;;4958608;28;20570;-72
2023/10/06 04:11:29;;;;;;;4.63;3.00;;;10.90;99.90;;;;;;4960601;28;20520;-72
2023/10/06 04:13:55;;;;;;;4.77;3.20;;;10.90;99.90;;;;;;4974407;28;20473;-71
2023/10/06 04:16:23;;;;;;;3.23;2.63;;;10.90;99.90;;;;;;4960818;28;20555;-72
2023/10/06 04:18:49;;;;;;;2.83;2.43;;;10.90;99.90;;;;;;4957893;28;20229;-72
2023/10/06 04:21:15;;;;;;;4.23;2.90;;;10.90;99.90;;;;;;4963720;28;21167;-72
2023/10/06 04:23:43;;;;;;;3.50;3.00;;;10.90;99.90;;;;;;4963229;28;20464;-70
2023/10/06 04:26:10;;;;;;;4.70;2.80;;;11.00;99.90;;;;;;4962080;28;20478;-72
2023/10/06 04:28:37;;;;;;;3.97;2.63;;;10.90;99.90;;;;;;4961503;28;20507;-72
2023/10/06 04:31:05;;;;;;;5.97;3.33;;;10.90;99.90;;;;;;4959117;28;20465;-71
2023/10/06 04:33:32;;;;;;;4.13;3.73;;;10.80;99.90;;;;;;4945630;28;21215;-71
2023/10/06 04:36:07;;;;;;;3.60;2.77;;;10.80;99.90;;;;;;4957181;28;20602;-71
2023/10/06 04:38:40;;;;;;;5.00;2.63;;;10.80;99.90;;;;;;4958978;28;20476;-71
2023/10/06 04:41:09;;;;;;;3.60;2.73;;;10.80;99.90;;;;;;4957426;28;21177;-72
2023/10/06 04:43:36;;;;;;;3.73;2.70;;;10.80;99.90;;;;;;4960312;28;20481;-71
2023/10/06 04:46:05;;;;;;;4.33;2.83;;;10.80;99.90;;;;;;4956489;28;20512;-72
2023/10/06 04:48:38;;;;;;;3.00;2.47;;;10.80;99.90;;;;;;4960996;28;20622;-70
2023/10/06 04:51:09;;;;;;;7.77;3.30;;;10.80;99.90;;;;;;4957747;28;20468;-71
2023/10/06 04:53:36;;;;;;;4.90;3.20;;;10.70;99.90;;;;;;4961357;28;20520;-71
2023/10/06 04:56:06;;;;;;;4.00;3.10;;;10.70;99.90;;;;;;4948094;28;20534;-72
2023/10/06 04:58:32;;;;;;;3.20;2.83;;;10.70;99.90;;;;;;4960046;28;21018;-72
2023/10/06 05:01:00;;;;;;;5.40;4.00;;;10.70;99.90;;;;;;4945138;28;20487;-72
2023/10/06 05:03:41;;;;;;;3.13;2.87;;;10.70;99.90;;;;;;4944211;28;20750;-72
2023/10/06 05:06:15;;;;;;;4.60;3.30;;;10.60;99.90;;;;;;4953256;28;21057;-70
2023/10/06 05:08:44;;;;;;;8.17;3.30;;;10.60;99.90;;;;;;4958348;28;20540;-71
2023/10/06 05:11:14;;;;;;;4.43;3.03;;;10.60;99.90;;;;;;4955741;28;20591;-71
2023/10/06 05:13:40;;;;;;;3.73;2.43;;;10.60;99.90;;;;;;4950489;28;20473;-71
2023/10/06 05:16:06;;;;;;;4.03;2.80;;;10.60;99.90;;;;;;4953128;28;20468;-72
2023/10/06 05:18:33;;;;;;;4.30;3.20;;;10.50;99.90;;;;;;4941638;28;20229;-72
2023/10/06 05:20:59;;;;;;;3.40;2.77;;;10.50;99.90;;;;;;4938118;28;20435;-72
2023/10/06 05:23:26;;;;;;;3.70;2.90;;;10.50;99.90;;;;;;4960750;28;20472;-72
2023/10/06 05:25:54;;;;;;;5.43;2.90;;;10.50;99.90;;;;;;4959201;28;21111;-71
2023/10/06 05:28:20;;;;;;;3.40;2.83;;;10.50;99.90;;;;;;4958055;28;20473;-72
2023/10/06 05:30:46;;;;;;;3.60;2.77;;;10.40;99.90;;;;;;4948661;28;20491;-72
2023/10/06 05:33:14;;;;;;;7.27;3.90;;;10.50;99.90;;;;;;4943527;28;20465;-72
2023/10/06 05:35:39;;;;;;;7.30;3.10;;;10.40;99.90;;;;;;4911649;28;20226;-70
2023/10/06 05:38:13;;;;;;;4.20;3.77;;;10.40;99.90;;;;;;4918768;28;20567;-72
2023/10/06 05:40:40;;;;;;;6.43;4.40;;;10.40;99.90;;;;;;4929583;28;20228;-72
2023/10/06 05:43:11;;;;;;;5.20;3.83;;;10.40;99.90;;;;;;4925382;28;20461;-70
2023/10/06 05:45:39;;;;;;;21.40;18.50;;;10.40;99.90;;;;;;4922666;28;20978;-71
2023/10/06 05:48:11;;;;;;;37.50;28.80;;;10.40;99.90;;;;;;4931700;28;20461;-71
2023/10/06 05:50:38;;;;;;;24.13;20.60;;;10.40;99.90;;;;;;4919650;28;20475;-71
2023/10/06 05:53:07;;;;;;;14.70;12.03;;;10.40;99.90;;;;;;4921103;28;20550;-72
2023/10/06 05:55:43;;;;;;;11.57;8.63;;;10.30;99.90;;;;;;4925819;28;20477;-72
2023/10/06 05:58:14;;;;;;;8.30;5.70;;;10.40;99.90;;;;;;4911591;28;20473;-71
2023/10/06 06:00:50;;;;;;;6.13;5.30;;;10.30;99.90;;;;;;4924077;28;20640;-71
2023/10/06 06:03:20;;;;;;;6.00;4.00;;;10.30;99.90;;;;;;4916268;28;20477;-71
2023/10/06 06:05:50;;;;;;;6.23;4.90;;;10.30;99.90;;;;;;4921308;28;20473;-71
2023/10/06 06:08:16;;;;;;;5.53;3.87;;;10.30;99.90;;;;;;4929374;28;20464;-71
2023/10/06 06:10:42;;;;;;;4.90;3.87;;;10.30;99.90;;;;;;4917359;28;20577;-72
2023/10/06 06:13:07;;;;;;;4.30;3.80;;;10.30;99.90;;;;;;4923425;28;20241;-72
2023/10/06 06:15:35;;;;;;;10.03;3.40;;;10.30;99.90;;;;;;4926423;28;20474;-72
2023/10/06 06:18:00;;;;;;;5.17;3.67;;;10.30;99.90;;;;;;4925576;28;20244;-72
2023/10/06 06:20:27;;;;;;;4.43;3.47;;;10.30;99.90;;;;;;4926383;28;21381;-72
2023/10/06 06:22:59;;;;;;;4.17;2.83;;;10.20;99.90;;;;;;4925285;28;20234;-70
2023/10/06 06:25:28;;;;;;;3.90;3.20;;;10.20;99.90;;;;;;4931320;28;21204;-72
2023/10/06 06:27:59;;;;;;;3.50;3.00;;;10.20;99.90;;;;;;4922624;28;20480;-72
2023/10/06 06:30:25;;;;;;;4.77;2.93;;;10.30;99.90;;;;;;4925790;28;21089;-72
2023/10/06 06:32:55;;;;;;;4.27;3.17;;;10.30;99.90;;;;;;4925091;28;20489;-71
2023/10/06 06:35:22;;;;;;;3.50;3.20;;;10.30;99.90;;;;;;4926464;28;20568;-71
2023/10/06 06:37:52;;;;;;;3.23;2.63;;;10.30;99.90;;;;;;4922981;28;20478;-71
2023/10/06 06:40:21;;;;;;;3.67;3.07;;;10.30;99.90;;;;;;4929627;28;21128;-70
2023/10/06 06:42:53;;;;;;;5.47;2.93;;;10.30;99.90;;;;;;4922813;28;20491;-72
2023/10/06 06:45:19;;;;;;;3.77;2.77;;;10.40;99.90;;;;;;4928122;28;20484;-71
2023/10/06 06:47:46;;;;;;;3.23;2.70;;;10.40;99.90;;;;;;4925314;28;20473;-72
2023/10/06 06:50:13;;;;;;;6.40;3.07;;;10.40;99.90;;;;;;4926281;28;20485;-72
2023/10/06 06:52:46;;;;;;;3.67;3.20;;;10.40;99.90;;;;;;4927423;28;20522;-71
2023/10/06 06:55:12;;;;;;;4.70;3.23;;;10.40;99.90;;;;;;4925091;28;21133;-72
2023/10/06 06:58:00;;;;;;;8.17;2.73;;;10.40;99.90;;;;;;4929799;28;20480;-71
2023/10/06 07:00:26;;;;;;;4.60;3.10;;;10.50;99.90;;;;;;4925941;28;20566;-72
2023/10/06 07:02:52;;;;;;;3.33;2.63;;;10.50;99.90;;;;;;4906248;28;20506;-71
2023/10/06 07:05:22;;;;;;;3.13;2.53;;;10.50;99.90;;;;;;4943444;28;20218;-71
2023/10/06 07:07:50;;;;;;;3.70;2.80;;;10.60;99.90;;;;;;4926138;28;20476;-72
2023/10/06 07:10:22;;;;;;;2.50;2.30;;;10.60;99.90;;;;;;4928471;28;20477;-72
2023/10/06 07:12:49;;;;;;;3.43;2.80;;;10.60;99.90;;;;;;4932345;28;20477;-71
2023/10/06 07:15:16;;;;;;;3.77;2.60;;;10.60;99.90;;;;;;4931406;28;20479;-71
2023/10/06 07:17:50;;;;;;;3.87;2.40;;;10.60;99.90;;;;;;4931547;28;21245;-72
2023/10/06 07:20:17;;;;;;;3.40;2.60;;;10.70;99.90;;;;;;4943324;28;20484;-71
2023/10/06 07:22:47;;;;;;;3.27;2.83;;;10.80;99.90;;;;;;4933075;28;20494;-72
2023/10/06 07:25:17;;;;;;;2.30;2.10;;;10.80;99.90;;;;;;4930644;28;20524;-71
2023/10/06 07:27:47;;;;;;;3.13;2.30;;;10.90;99.90;;;;;;4931816;28;20597;-71
2023/10/06 07:30:16;;;;;;;2.43;2.23;;;11.00;99.90;;;;;;4934751;28;20481;-72
2023/10/06 07:32:46;;;;;;;2.80;2.00;;;11.00;99.90;;;;;;4934072;28;20575;-70
2023/10/06 07:35:14;;;;;;;2.57;2.03;;;11.10;99.90;;;;;;4931707;28;20643;-71
2023/10/06 07:37:44;;;;;;;2.83;2.50;;;11.10;99.90;;;;;;4935389;28;20473;-71
2023/10/06 07:40:14;;;;;;;2.60;2.27;;;11.20;99.90;;;;;;4914930;28;20488;-71
2023/10/06 07:42:47;;;;;;;4.80;2.67;;;11.20;99.90;;;;;;4931848;28;20607;-71
2023/10/06 07:45:13;;;;;;;3.70;2.70;;;11.30;99.90;;;;;;4933774;28;20476;-72
2023/10/06 07:47:40;;;;;;;3.30;2.30;;;11.30;99.90;;;;;;4916642;28;20863;-71
2023/10/06 07:50:07;;;;;;;3.40;3.10;;;11.40;99.90;;;;;;4929319;28;20555;-71
2023/10/06 07:52:33;;;;;;;3.13;2.47;;;11.40;99.90;;;;;;4931556;28;20469;-71
2023/10/06 07:55:00;;;;;;;5.10;3.00;;;11.50;99.90;;;;;;4930964;28;20528;-71
2023/10/06 07:57:31;;;;;;;2.07;1.90;;;11.50;99.90;;;;;;4928897;28;20222;-72
2023/10/06 07:59:59;;;;;;;2.73;2.30;;;11.60;99.90;;;;;;4929620;28;20466;-71
2023/10/06 08:02:26;;;;;;;2.17;2.07;;;11.70;99.90;;;;;;4936049;28;20479;-71
2023/10/06 08:04:52;;;;;;;2.20;2.00;;;11.70;99.90;;;;;;4932460;28;20468;-72
2023/10/06 08:07:20;;;;;;;2.43;2.03;;;11.80;99.90;;;;;;4941326;28;20524;-71
2023/10/06 08:09:46;;;;;;;3.83;2.47;;;11.90;99.90;;;;;;4945164;28;20386;-71
2023/10/06 08:12:13;;;;;;;3.27;2.43;;;12.00;99.90;;;;;;4932992;28;21244;-72
2023/10/06 08:14:39;;;;;;;8.10;3.53;;;12.00;99.90;;;;;;4915939;28;20222;-72
2023/10/06 08:17:05;;;;;;;3.40;2.23;;;12.10;99.90;;;;;;4933227;28;20476;-69
2023/10/06 08:19:31;;;;;;;2.70;2.50;;;12.20;99.90;;;;;;4942561;28;20568;-72
2023/10/06 08:21:57;;;;;;;4.33;2.63;;;12.40;99.90;;;;;;4916447;28;20487;-72
2023/10/06 08:24:23;;;;;;;3.87;2.60;;;12.40;99.90;;;;;;4935534;28;20481;-71
2023/10/06 08:26:49;;;;;;;4.13;3.50;;;12.50;99.90;;;;;;4933538;28;20317;-71
2023/10/06 08:29:14;;;;;;;11.17;3.43;;;12.70;99.90;;;;;;4932798;28;20230;-72
2023/10/06 08:31:40;;;;;;;3.13;2.63;;;12.80;99.90;;;;;;4932465;28;20241;-71
2023/10/06 08:34:05;;;;;;;2.70;2.50;;;12.90;99.90;;;;;;4919078;28;20305;-72
2023/10/06 08:36:37;;;;;;;6.53;3.60;;;13.00;99.90;;;;;;4932681;28;20213;-72
2023/10/06 08:39:03;;;;;;;2.30;2.10;;;13.10;99.90;;;;;;4933515;28;20788;-72
2023/10/06 08:41:36;;;;;;;2.97;2.63;;;13.20;99.90;;;;;;4936156;28;20532;-72
2023/10/06 08:44:02;;;;;;;4.57;3.50;;;13.30;99.90;;;;;;4931557;28;20218;-71
2023/10/06 08:46:33;;;;;;;4.80;3.60;;;13.50;99.90;;;;;;4931871;28;20470;-71
2023/10/06 08:48:59;;;;;;;3.87;3.30;;;13.50;99.90;;;;;;4933514;28;20580;-72
2023/10/06 08:51:30;;;;;;;4.60;3.97;;;13.60;99.90;;;;;;4934380;28;20481;-72
2023/10/06 08:53:57;;;;;;;5.90;3.30;;;13.70;99.90;;;;;;4933019;28;20317;-71
2023/10/06 08:56:23;;;;;;;4.20;3.10;;;13.80;99.90;;;;;;4949296;28;20474;-72
2023/10/06 08:58:49;;;;;;;5.97;3.40;;;13.80;99.90;;;;;;4938851;28;20483;-71
2023/10/06 09:01:18;;;;;;;4.03;3.30;;;14.00;99.90;;;;;;4931554;28;20222;-72
2023/10/06 09:03:46;;;;;;;4.93;3.67;;;14.20;99.90;;;;;;4933065;28;20506;-71
2023/10/06 09:06:12;;;;;;;4.10;3.53;;;14.30;99.90;;;;;;4936468;28;20466;-72
2023/10/06 09:08:43;;;;;;;4.93;3.90;;;14.40;99.90;;;;;;4934495;28;20484;-72
2023/10/06 09:11:12;;;;;;;4.33;3.23;;;14.50;99.90;;;;;;4933548;28;21765;-72
2023/10/06 09:13:38;;;;;;;6.33;3.90;;;14.60;99.90;;;;;;4934661;28;20570;-71
2023/10/06 09:16:08;;;;;;;4.00;3.10;;;14.60;99.90;;;;;;4917480;28;20618;-72
2023/10/06 09:18:35;;;;;;;4.07;3.60;;;14.80;99.90;;;;;;4921651;28;20484;-72
2023/10/06 09:21:20;;;;;;;6.50;4.10;;;15.00;99.90;;;;;;4931403;28;21293;-71
2023/10/06 09:23:46;;;;;;;8.03;3.50;;;15.10;99.90;;;;;;4934771;28;20509;-73
2023/10/06 09:26:15;;;;;;;4.83;3.50;;;15.30;99.90;;;;;;4940161;28;21067;-72
2023/10/06 09:29:01;;;;;;;4.30;3.27;;;15.50;99.90;;;;;;4921159;28;20502;-72
2023/10/06 09:31:38;;;;;;;5.07;3.90;;;15.50;99.90;;;;;;4933180;28;20480;-72
2023/10/06 09:34:07;;;;;;;4.37;2.60;;;15.50;99.90;;;;;;4919943;28;20480;-71
2023/10/06 09:36:33;;;;;;;6.60;3.70;;;15.70;99.90;;;;;;4929892;28;20484;-72
2023/10/06 09:39:14;;;;;;;4.60;3.53;;;15.80;99.90;;;;;;4930418;28;20983;-71
2023/10/06 09:41:40;;;;;;;3.87;3.30;;;15.90;99.90;;;;;;4939474;28;20509;-72
2023/10/06 09:44:11;;;;;;;5.37;3.80;;;16.00;99.90;;;;;;4928967;28;21126;-72
2023/10/06 09:46:41;;;;;;;4.97;3.33;;;16.10;99.90;;;;;;4948656;28;20910;-71
2023/10/06 09:49:11;;;;;;;7.90;3.67;;;16.10;99.90;;;;;;4936976;28;21168;-71
2023/10/06 09:51:37;;;;;;;4.80;2.67;;;16.20;99.90;;;;;;4932878;28;20495;-72
2023/10/06 09:54:09;;;;;;;6.43;3.67;;;16.30;99.90;;;;;;4933552;28;20465;-71
2023/10/06 09:56:36;;;;;;;5.13;3.23;;;16.30;99.90;;;;;;4934222;28;20532;-72
2023/10/06 09:59:07;;;;;;;6.97;3.60;;;16.50;99.90;;;;;;4933037;28;20555;-73
2023/10/06 10:01:35;;;;;;;7.60;3.07;;;16.80;99.90;;;;;;4930914;28;21128;-72
2023/10/06 10:04:01;;;;;;;4.00;3.50;;;16.90;99.90;;;;;;4939651;28;20469;-72
2023/10/06 10:06:28;;;;;;;4.93;2.60;;;16.90;99.90;;;;;;4932327;28;20469;-72
2023/10/06 10:08:54;;;;;;;5.70;3.07;;;16.80;99.90;;;;;;4930811;28;20471;-73
2023/10/06 10:11:30;;;;;;;5.67;3.43;;;16.80;99.90;;;;;;4929725;28;20481;-72
2023/10/06 10:14:33;;;;;;;8.13;3.50;;;16.90;99.90;;;;;;4933348;28;21065;-72
2023/10/06 10:17:23;;;;;;;7.33;3.30;;;17.00;99.90;;;;;;4931570;28;21266;-72
2023/10/06 10:19:51;;;;;;;3.53;3.00;;;17.40;99.90;;;;;;4938350;28;20532;-73
2023/10/06 10:22:18;;;;;;;3.63;2.90;;;17.50;99.90;;;;;;4934501;28;20528;-72
2023/10/06 10:24:47;;;;;;;4.57;3.13;;;17.60;99.90;;;;;;4929024;28;21056;-71
2023/10/06 10:27:14;;;;;;;4.67;3.30;;;17.60;99.90;;;;;;4929301;28;21081;-72
2023/10/06 10:29:41;;;;;;;5.53;3.30;;;17.80;99.90;;;;;;4930905;28;20479;-73
2023/10/06 10:32:25;;;;;;;5.10;2.87;;;18.00;99.90;;;;;;4933758;28;21026;-73
2023/10/06 10:35:14;;;;;;;4.80;3.00;;;18.10;99.90;;;;;;4929273;28;20482;-72
2023/10/06 10:37:55;;;;;;;6.03;3.13;;;18.50;99.90;;;;;;4932226;28;20473;-73
2023/10/06 10:40:25;;;;;;;4.97;2.70;;;18.60;99.90;;;;;;4934499;28;21244;-73
2023/10/06 10:43:00;;;;;;;6.00;3.27;;;18.70;99.90;;;;;;4923138;28;20536;-72
2023/10/06 10:45:34;;;;;;;5.27;3.37;;;18.90;99.90;;;;;;4930101;28;20523;-72
2023/10/06 10:48:04;;;;;;;3.57;2.90;;;19.00;99.90;;;;;;4933957;28;20484;-72
2023/10/06 10:50:58;;;;;;;4.33;3.00;;;19.10;99.90;;;;;;4930489;28;20552;-73
2023/10/06 10:53:28;;;;;;;5.50;3.10;;;19.10;99.90;;;;;;4929846;28;20489;-72
2023/10/06 10:55:54;;;;;;;2.97;2.77;;;19.00;99.90;;;;;;4931629;28;20516;-72
2023/10/06 10:58:42;;;;;;;3.80;3.27;;;19.00;99.90;;;;;;4932805;28;20485;-72
2023/10/06 11:01:37;;;;;;;3.43;3.13;;;19.20;99.90;;;;;;4928231;28;20484;-73
2023/10/06 11:04:18;;;;;;;4.77;3.67;;;19.60;99.90;;;;;;4931215;28;20547;-73
2023/10/06 11:06:45;;;;;;;3.40;3.10;;;19.70;99.90;;;;;;4940411;28;20559;-72
2023/10/06 11:09:26;;;;;;;4.70;3.00;;;19.60;99.90;;;;;;4931818;28;20488;-73
2023/10/06 11:11:55;;;;;;;6.10;2.93;;;19.60;99.90;;;;;;4925405;28;20527;-73
2023/10/06 11:14:27;;;;;;;5.83;3.17;;;19.70;99.90;;;;;;4914349;28;20565;-72
2023/10/06 11:17:02;;;;;;;4.83;3.57;;;19.80;99.90;;;;;;4927633;28;20477;-72
2023/10/06 11:19:32;;;;;;;4.33;3.80;;;20.00;99.90;;;;;;4944778;28;20505;-73
2023/10/06 11:22:22;;;;;;;4.80;3.30;;;20.20;99.90;;;;;;4933561;28;20480;-73
2023/10/06 11:24:50;;;;;;;4.10;3.70;;;20.10;99.90;;;;;;4945563;28;20477;-73
2023/10/06 11:27:17;;;;;;;3.30;2.87;;;20.10;99.90;;;;;;4929421;28;20593;-72
2023/10/06 11:29:46;;;;;;;3.10;2.77;;;20.20;99.90;;;;;;4933857;28;20623;-73
2023/10/06 11:32:13;;;;;;;4.97;3.20;;;20.20;99.90;;;;;;4930862;28;20477;-72
2023/10/06 11:34:42;;;;;;;4.93;3.03;;;20.30;99.90;;;;;;4944564;28;20466;-74
2023/10/06 11:37:08;;;;;;;8.93;4.00;;;20.50;99.90;;;;;;4930651;28;20500;-73
2023/10/06 11:39:34;;;;;;;5.50;4.40;;;20.50;99.90;;;;;;4936529;28;21353;-73
2023/10/06 11:42:30;;;;;;;6.60;4.37;;;20.60;99.90;;;;;;4933893;28;20699;-73
2023/10/06 11:44:57;;;;;;;7.93;3.60;;;20.50;99.90;;;;;;4932442;28;20642;-72
2023/10/06 11:47:26;;;;;;;5.27;3.30;;;20.50;99.90;;;;;;4946277;28;20457;-73
2023/10/06 11:49:57;;;;;;;6.30;3.20;;;20.60;99.90;;;;;;4932473;28;20576;-73
2023/10/06 11:52:24;;;;;;;4.33;3.40;;;20.60;99.90;;;;;;4949853;28;20580;-73
2023/10/06 11:54:51;;;;;;;2.97;2.77;;;20.20;99.90;;;;;;4938297;28;20504;-72
2023/10/06 11:57:17;;;;;;;4.50;2.77;;;20.30;99.90;;;;;;4936107;28;20478;-72
2023/10/06 11:59:51;;;;;;;4.00;2.90;;;20.50;99.90;;;;;;4922545;28;20476;-73
2023/10/06 12:02:17;;;;;;;7.63;3.90;;;20.50;99.90;;;;;;4933891;28;20598;-73
2023/10/06 12:04:43;;;;;;;3.27;2.80;;;20.50;99.90;;;;;;4936175;28;21231;-73
2023/10/06 12:07:22;;;;;;;5.40;3.00;;;20.40;99.90;;;;;;4930716;28;21195;-73
2023/10/06 12:09:48;;;;;;;4.40;2.63;;;20.30;99.90;;;;;;4932645;28;21047;-73
2023/10/06 12:12:17;;;;;;;3.87;2.90;;;20.50;99.90;;;;;;4923484;28;20480;-73
2023/10/06 12:14:44;;;;;;;4.20;3.10;;;20.70;99.90;;;;;;4934583;28;20960;-73
2023/10/06 12:17:14;;;;;;;4.40;3.10;;;20.30;99.90;;;;;;4935514;28;20485;-73
2023/10/06 12:19:44;;;;;;;3.57;2.83;;;20.30;99.90;;;;;;4966047;28;20478;-71
2023/10/06 12:22:10;;;;;;;5.77;2.90;;;20.70;99.90;;;;;;4964672;28;20480;-73
2023/10/06 12:24:36;;;;;;;4.53;2.37;;;20.70;99.90;;;;;;4957720;28;20563;-73
2023/10/06 12:27:02;;;;;;;3.90;2.73;;;20.80;99.90;;;;;;4962173;28;21562;-72
2023/10/06 12:29:31;;;;;;;5.40;3.10;;;21.20;99.90;;;;;;4953511;28;20235;-73
2023/10/06 12:31:57;;;;;;;3.67;2.77;;;21.40;99.90;;;;;;4933217;28;21051;-73
2023/10/06 12:34:23;;;;;;;5.03;2.80;;;21.40;99.90;;;;;;4932344;28;20468;-72
2023/10/06 12:36:51;;;;;;;4.47;2.73;;;21.60;99.90;;;;;;4943881;28;20474;-73
2023/10/06 12:39:30;;;;;;;3.33;2.80;;;21.60;99.90;;;;;;4935774;28;20465;-72
2023/10/06 12:41:57;;;;;;;6.97;2.80;;;21.70;99.90;;;;;;4928638;28;20547;-73
2023/10/06 12:44:27;;;;;;;3.90;3.07;;;21.90;99.90;;;;;;4932557;28;20469;-73
2023/10/06 12:46:55;;;;;;;7.43;2.53;;;21.90;99.90;;;;;;4935477;28;20542;-73
2023/10/06 12:49:24;;;;;;;4.97;2.53;;;21.80;99.90;;;;;;4928346;28;20472;-72
2023/10/06 12:51:50;;;;;;;5.93;3.00;;;21.90;99.90;;;;;;4933807;28;20574;-72
2023/10/06 12:54:16;;;;;;;7.67;3.53;;;21.90;99.90;;;;;;4935939;28;20477;-73
2023/10/06 12:56:46;;;;;;;5.50;2.80;;;22.00;99.90;;;;;;4933743;28;20352;-73
2023/10/06 12:59:12;;;;;;;6.90;2.67;;;21.80;99.90;;;;;;4932871;28;20477;-73
2023/10/06 13:01:37;;;;;;;4.37;3.30;;;21.80;99.90;;;;;;4935068;28;20630;-73
2023/10/06 13:04:05;;;;;;;5.73;2.70;;;21.90;99.90;;;;;;4935983;28;20509;-73
2023/10/06 13:06:31;;;;;;;5.00;2.93;;;22.00;99.90;;;;;;4934987;28;21468;-74
2023/10/06 13:09:01;;;;;;;5.10;2.83;;;22.00;99.90;;;;;;4925942;28;20480;-74